createdAt,value
2022-07-28T00:02:17.699Z,10.60
2022-07-28T00:07:22.930Z,9.93
2022-07-28T00:12:28.592Z,11.17
2022-07-28T00:17:36.223Z,13.53
2022-07-28T00:22:44.840Z,12.57
2022-07-28T00:27:50.050Z,9.47
2022-07-28T00:32:57.624Z,15.13
2022-07-28T00:38:03.482Z,10.67
2022-07-28T00:43:10.775Z,9.37
2022-07-28T00:48:20.213Z,9.33
2022-07-28T00:53:25.921Z,10.80
2022-07-28T00:58:31.453Z,9.57
2022-07-28T01:03:42.644Z,10.77
2022-07-28T01:09:08.837Z,9.83
2022-07-28T01:14:20.326Z,8.27
2022-07-28T01:19:46.410Z,10.77
2022-07-28T01:24:59.380Z,6.83
2022-07-28T01:30:11.867Z,7.23
2022-07-28T01:35:24.235Z,7.93
2022-07-28T01:40:34.025Z,18.03
2022-07-28T01:45:41.429Z,11.07
2022-07-28T01:50:51.708Z,10.43
2022-07-28T01:55:57.886Z,10.07
2022-07-28T02:01:05.128Z,9.00
2022-07-28T02:06:17.302Z,10.17
2022-07-28T02:11:34.704Z,9.30
2022-07-28T02:16:43.083Z,8.13
2022-07-28T02:21:52.759Z,9.90
2022-07-28T02:27:02.281Z,6.30
2022-07-28T02:32:26.902Z,8.20
2022-07-28T02:37:40.476Z,9.23
2022-07-28T02:42:49.828Z,6.67
2022-07-28T02:47:59.957Z,6.70
2022-07-28T02:53:15.044Z,7.40
2022-07-28T02:58:24.131Z,14.03
2022-07-28T03:03:30.545Z,7.43
2022-07-28T03:08:38.479Z,8.80
2022-07-28T03:13:44.393Z,9.77
2022-07-28T03:18:49.576Z,10.03
2022-07-28T03:23:58.756Z,8.13
2022-07-28T03:29:05.866Z,9.93
2022-07-28T03:34:12.295Z,9.03
2022-07-28T03:39:20.848Z,8.10
2022-07-28T03:44:28.786Z,7.97
2022-07-28T03:49:34.129Z,10.63
2022-07-28T03:54:41.668Z,15.03
2022-07-28T03:59:46.689Z,12.73
2022-07-28T04:04:53.530Z,8.23
2022-07-28T04:10:01.772Z,10.60
2022-07-28T04:15:09.532Z,14.77
2022-07-28T04:20:15.515Z,8.70
2022-07-28T04:25:25.871Z,7.57
2022-07-28T04:30:30.975Z,13.27
2022-07-28T04:35:37.339Z,8.40
2022-07-28T04:40:45.011Z,7.23
2022-07-28T04:45:53.408Z,11.53
2022-07-28T04:50:59.566Z,10.63
2022-07-28T04:56:07.967Z,5.03
2022-07-28T05:01:13.138Z,8.10
2022-07-28T05:06:18.790Z,7.63
2022-07-28T05:11:26.470Z,5.73
2022-07-28T05:16:31.460Z,8.40
2022-07-28T05:21:37.952Z,6.33
2022-07-28T05:26:45.854Z,6.10
2022-07-28T05:31:52.223Z,5.93
2022-07-28T05:36:57.301Z,6.40
2022-07-28T05:42:04.900Z,5.13
2022-07-28T05:47:09.972Z,4.30
2022-07-28T05:52:14.902Z,5.80
2022-07-28T05:57:23.669Z,7.70
2022-07-28T06:02:28.823Z,8.10
2022-07-28T06:07:43.961Z,5.97
2022-07-28T06:12:53.240Z,6.07
2022-07-28T06:17:58.629Z,3.57
2022-07-28T06:23:03.681Z,8.40
2022-07-28T06:28:11.404Z,4.43
2022-07-28T06:33:17.418Z,3.00
2022-07-28T06:38:23.322Z,3.33
2022-07-28T06:43:34.158Z,2.87
2022-07-28T06:48:43.501Z,3.17
2022-07-28T06:53:48.998Z,5.00
2022-07-28T06:59:03.201Z,4.40
2022-07-28T07:04:10.378Z,3.40
2022-07-28T07:09:19.462Z,4.93
2022-07-28T07:14:29.331Z,5.93
2022-07-28T07:19:34.567Z,1.50
2022-07-28T07:24:39.756Z,4.37
2022-07-28T07:29:47.232Z,2.20
2022-07-28T07:34:52.137Z,4.13
2022-07-28T07:39:57.378Z,2.83
2022-07-28T07:45:05.051Z,4.67
2022-07-28T07:50:13.406Z,3.50
2022-07-28T07:55:19.284Z,3.60
2022-07-28T08:00:28.523Z,5.83
2022-07-28T08:05:35.418Z,3.60
2022-07-28T08:10:42.404Z,4.70
2022-07-28T08:15:50.470Z,3.23
2022-07-28T08:21:04.535Z,3.77
2022-07-28T08:26:10.094Z,2.93
2022-07-28T08:31:22.095Z,6.37
2022-07-28T08:36:27.583Z,5.00
2022-07-28T08:41:40.100Z,5.73
2022-07-28T08:46:50.735Z,4.87
2022-07-28T08:51:58.755Z,3.83
2022-07-28T08:57:06.129Z,3.83
2022-07-28T09:02:16.343Z,4.63
2022-07-28T09:07:22.139Z,2.90
2022-07-28T09:12:28.638Z,3.23
2022-07-28T09:17:38.078Z,2.83
2022-07-28T09:22:59.416Z,4.97
2022-07-28T09:28:28.230Z,4.27
2022-07-28T09:33:41.246Z,1.60
2022-07-28T09:38:49.924Z,5.03
2022-07-28T09:43:56.161Z,5.37
2022-07-28T09:49:04.741Z,1.37
2022-07-28T09:54:13.828Z,6.17
2022-07-28T09:59:19.487Z,3.43
2022-07-28T10:04:38.478Z,6.20
2022-07-28T10:09:44.506Z,2.43
2022-07-28T10:14:50.573Z,5.13
2022-07-28T10:19:59.101Z,3.90
2022-07-28T10:25:05.269Z,3.88
2022-07-28T10:30:12.124Z,2.97
2022-07-28T10:35:20.835Z,4.50
2022-07-28T10:40:30.335Z,7.13
2022-07-28T10:46:03.294Z,5.07
2022-07-28T10:51:05.966Z,7.43
2022-07-28T10:56:18.796Z,3.13
2022-07-28T11:01:49.020Z,4.03
2022-07-28T11:07:13.529Z,3.38
2022-07-28T11:12:19.166Z,1.95
2022-07-28T11:17:33.091Z,3.95
2022-07-28T11:22:41.795Z,5.05
2022-07-28T11:28:05.311Z,4.03
2022-07-28T11:33:11.184Z,5.13
2022-07-28T11:38:18.871Z,4.05
2022-07-28T11:43:42.443Z,2.92
2022-07-28T11:48:50.121Z,4.35
2022-07-28T11:53:59.191Z,2.72
2022-07-28T11:59:06.873Z,4.80
2022-07-28T12:04:16.038Z,2.72
2022-07-28T12:09:41.287Z,3.25
2022-07-28T12:14:47.490Z,2.38
2022-07-28T12:19:59.952Z,5.75
2022-07-28T12:25:13.951Z,2.47
2022-07-28T12:30:25.875Z,5.82
2022-07-28T12:35:31.042Z,3.63
2022-07-28T12:40:40.107Z,3.08
2022-07-28T12:45:48.540Z,9.10
2022-07-28T12:50:53.782Z,3.35
2022-07-28T12:56:06.146Z,6.90
2022-07-28T13:01:13.313Z,3.65
2022-07-28T13:06:18.396Z,4.55
2022-07-28T13:11:46.111Z,3.97
2022-07-28T13:17:03.592Z,2.90
2022-07-28T13:22:12.314Z,2.67
2022-07-28T13:27:20.382Z,3.65
2022-07-28T13:32:25.609Z,4.38
2022-07-28T13:37:30.806Z,2.60
2022-07-28T13:42:38.594Z,3.20
2022-07-28T13:47:43.436Z,6.85
2022-07-28T13:52:48.750Z,4.05
2022-07-28T13:57:56.677Z,3.53
2022-07-28T14:03:01.855Z,3.55
2022-07-28T14:08:07.680Z,6.35
2022-07-28T14:13:17.060Z,3.35
2022-07-28T14:18:24.982Z,3.45
2022-07-28T14:23:31.759Z,6.05
2022-07-28T14:28:39.472Z,2.55
2022-07-28T14:33:48.366Z,4.20
2022-07-28T14:38:56.607Z,6.05
2022-07-28T14:44:04.128Z,6.03
2022-07-28T14:49:09.144Z,3.17
2022-07-28T14:54:14.824Z,4.22
2022-07-28T14:59:22.933Z,3.15
2022-07-28T15:04:28.605Z,3.15
2022-07-28T15:09:36.392Z,3.65
2022-07-28T15:14:47.610Z,3.42
2022-07-28T15:19:52.589Z,6.82
2022-07-28T15:25:01.031Z,4.63
2022-07-28T15:30:09.799Z,3.70
2022-07-28T15:35:18.284Z,3.28
2022-07-28T15:40:23.515Z,2.95
2022-07-28T15:45:32.664Z,4.47
2022-07-28T15:50:38.188Z,2.30
2022-07-28T15:55:48.961Z,3.10
2022-07-28T16:01:01.103Z,5.68
2022-07-28T16:06:07.459Z,4.15
2022-07-28T16:11:13.389Z,3.70
2022-07-28T16:16:21.443Z,6.10
2022-07-28T16:21:26.525Z,3.33
2022-07-28T16:26:31.800Z,4.13
2022-07-28T16:31:44.824Z,4.70
2022-07-28T16:36:50.338Z,2.17
2022-07-28T16:41:55.669Z,3.85
2022-07-28T16:47:05.237Z,4.50
2022-07-28T16:52:10.347Z,2.00
2022-07-28T16:57:15.533Z,5.97
2022-07-28T17:02:23.313Z,4.65
2022-07-28T17:07:28.307Z,5.82
2022-07-28T17:12:33.321Z,5.07
2022-07-28T17:17:41.006Z,3.65
2022-07-28T17:22:49.205Z,2.83
2022-07-28T17:27:54.106Z,4.07
2022-07-28T17:33:07.887Z,4.63
2022-07-28T17:38:15.926Z,4.60
2022-07-28T17:43:21.236Z,3.38
2022-07-28T17:48:28.713Z,2.10
2022-07-28T17:53:39.104Z,3.20
2022-07-28T17:58:44.817Z,3.65
2022-07-28T18:03:59.226Z,3.40
2022-07-28T18:09:08.097Z,3.67
2022-07-28T18:14:17.930Z,4.10
2022-07-28T18:19:25.776Z,3.67
2022-07-28T18:24:32.008Z,5.45
2022-07-28T18:29:38.359Z,4.15
2022-07-28T18:34:46.387Z,3.20
2022-07-28T18:39:51.478Z,12.07
2022-07-28T18:44:56.412Z,7.15
2022-07-28T18:50:04.007Z,3.77
2022-07-28T18:55:09.891Z,7.32
2022-07-28T19:00:16.404Z,4.77
2022-07-28T19:05:24.085Z,5.07
2022-07-28T19:10:29.332Z,5.53
2022-07-28T19:15:35.525Z,5.07
2022-07-28T19:20:43.518Z,2.47
2022-07-28T19:25:48.599Z,6.97
2022-07-28T19:30:53.706Z,3.83
2022-07-28T19:36:01.979Z,5.73
2022-07-28T19:41:09.392Z,3.13
2022-07-28T19:46:14.566Z,4.20
2022-07-28T19:51:22.116Z,6.10
2022-07-28T19:56:31.211Z,7.17
2022-07-28T20:01:44.171Z,7.77
2022-07-28T20:06:55.631Z,4.03
2022-07-28T20:12:00.848Z,5.27
2022-07-28T20:17:06.011Z,4.97
2022-07-28T20:22:13.642Z,3.33
2022-07-28T20:27:18.550Z,2.40
2022-07-28T20:32:23.501Z,5.07
2022-07-28T20:37:36.818Z,4.43
2022-07-28T20:42:43.822Z,4.23
2022-07-28T20:47:48.667Z,6.80
2022-07-28T20:52:56.206Z,10.70
2022-07-28T20:58:01.071Z,7.63
2022-07-28T21:03:08.147Z,4.90
2022-07-28T21:08:16.339Z,5.13
2022-07-28T21:13:24.080Z,3.53
2022-07-28T21:18:31.923Z,6.90
2022-07-28T21:23:40.663Z,2.53
2022-07-28T21:28:58.066Z,3.60
2022-07-28T21:34:02.949Z,7.03
2022-07-28T21:39:11.466Z,4.40
2022-07-28T21:44:16.511Z,4.90
2022-07-28T21:49:21.756Z,9.40
2022-07-28T21:54:30.829Z,2.60
2022-07-28T21:59:35.762Z,2.73
2022-07-28T22:04:41.651Z,4.53
2022-07-28T22:09:49.367Z,5.30
2022-07-28T22:14:54.195Z,6.50
2022-07-28T22:19:59.218Z,3.97
2022-07-28T22:25:07.265Z,3.10
2022-07-28T22:30:13.041Z,5.90
2022-07-28T22:35:19.401Z,7.10
2022-07-28T22:40:27.184Z,4.93
2022-07-28T22:45:50.122Z,6.67
2022-07-28T22:50:56.079Z,3.07
2022-07-28T22:56:03.696Z,4.83
2022-07-28T23:01:11.718Z,3.63
2022-07-28T23:06:17.389Z,6.20
2022-07-28T23:11:24.913Z,4.50
2022-07-28T23:16:29.952Z,5.93
2022-07-28T23:21:34.859Z,4.83
2022-07-28T23:26:43.832Z,4.13
2022-07-28T23:31:49.672Z,5.63
2022-07-28T23:36:54.667Z,6.43
2022-07-28T23:42:02.297Z,5.50
2022-07-28T23:47:09.301Z,4.57
2022-07-28T23:52:14.228Z,7.57
2022-07-28T23:57:21.848Z,8.50
